CSAV Rio Maipo — A8GH5 — position and weather

sailwx.info

Track history (hours):
 
Tides and Currents Weather Stations Pressure Air Temp Water Temp Dewpoint Dewpoint Depression Visibility Wind Speed Wind Dir Waves Ship Positions

CSAV Rio Maipo

Last reported at 2015-Feb-28 17:32 UTC. Time now 2015-Mar-02 14:59 UTC.
Position N 01°15' E 104°11'.

Length 210.9 m; beam 32.3 m; draft 12 m.

Type: Ship (hazmat cat A). MMSI: 636091292.

Date/timePositionNaut miles runAvg speedWind from/ knotsBaromVisibWave heightAir tempDewpointWater temp
2015-Feb-28 17:32N 01°15' E 104°11'1413.9
2015-Feb-28 16:33N 01°14' E 103°58'1010.1
2015-Feb-28 15:32N 01°13' E 103°47'4 4.4
2015-Feb-28 14:33N 01°17' E 103°46'0 0.0
2015-Feb-28 13:33N 01°17' E 103°46'0 0.0
2015-Feb-28 10:11N 01°17' E 103°46'0 0.0
2015-Feb-28 09:29N 01°17' E 103°46'0 0.0
2015-Feb-27 22:14N 01°17' E 103°46'1 0.2
2015-Feb-27 19:33N 01°17' E 103°45'7 7.4
2015-Feb-27 18:33N 01°12' E 103°51'1010.0
2015-Feb-27 17:33N 01°15' E 104°00'7 6.7
2015-Feb-27 16:33N 01°22' E 104°03'6 0.3
2015-Feb-26 22:08N 01°24' E 103°57'610.1
2015-Feb-26 21:31N 01°22' E 104°03'1010.4
2015-Feb-26 20:33N 01°17' E 104°12'  
2015-Feb-23 07:21N 22°07' E 114°19'1013.0
2015-Feb-23 06:33N 22°13' E 114°10'1110.7
2015-Feb-23 05:31N 22°21' E 114°02'9 9.4
2015-Feb-23 04:33N 22°24' E 113°53'3 2.9
2015-Feb-23 03:33N 22°27' E 113°54'0 0.0
2015-Feb-23 02:31N 22°27' E 113°54'0 0.0
2015-Feb-23 01:30N 22°27' E 113°54'0 0.0
2015-Feb-23 00:30N 22°27' E 113°54'0 0.0
2015-Feb-22 23:30N 22°27' E 113°54'0 0.0
2015-Feb-22 22:30N 22°27' E 113°54'0 0.0
2015-Feb-22 21:30N 22°27' E 113°54'0 0.0
2015-Feb-22 20:30N 22°27' E 113°54'0 0.0
2015-Feb-22 19:30N 22°27' E 113°54'0 0.0
2015-Feb-22 18:24N 22°27' E 113°54'0 0.5
2015-Feb-22 17:34N 22°27' E 113°54'10 7.4
2015-Feb-22 16:13N 22°21' E 114°02'6 9.2
2015-Feb-22 15:33N 22°17' E 114°07'1110.5
2015-Feb-22 14:33N 22°09' E 114°14'1715.6
2015-Feb-22 13:28N 22°08' E 114°33'203 6.8
2015-Feb-21 07:33N 23°36' E 117°51'1616.2
2015-Feb-21 06:33N 23°48' E 118°04'1616.1
2015-Feb-21 05:33N 23°59' E 118°16'1414.3
2015-Feb-21 04:33N 24°14' E 118°16'1313.2
2015-Feb-21 03:33N 24°24' E 118°07'7 7.4
2015-Feb-21 02:33N 24°31' E 118°04'0 0.2
2015-Feb-21 01:33N 24°30' E 118°05'0 0.0
2015-Feb-21 00:18N 24°30' E 118°05'0 0.0
2015-Feb-20 23:15N 24°30' E 118°05'0 0.0
2015-Feb-20 22:33N 24°30' E 118°05'0 0.0
2015-Feb-20 21:24N 24°30' E 118°05'6 6.8
2015-Feb-20 20:33N 24°25' E 118°06'6 6.4
2015-Feb-20 19:33N 24°20' E 118°11'1010.4
2015-Feb-20 18:33N 24°14' E 118°20'1211.8
2015-Feb-20 17:33N 24°16' E 118°33'1111.3
2015-Feb-20 16:33N 24°21' E 118°43'1211.6
2015-Feb-20 15:33N 24°29' E 118°53'1515.5
2015-Feb-20 14:34N 24°38' E 119°07'3615.1
2015-Feb-20 12:12N 24°58' E 119°39'1114.5
2015-Feb-20 11:24N 25°04' E 119°50'33915.3
2015-Feb-19 13:12N 30°01' E 122°56'2915.2
2015-Feb-19 11:17N 30°30' E 122°60'1614.4
2015-Feb-19 10:10N 30°46' E 122°55'1215.6
2015-Feb-19 09:23N 30°57' E 122°49'1915.2
2015-Feb-19 08:07N 31°05' E 122°29'712.5
2015-Feb-19 07:33N 31°06' E 122°21'1514.6
2015-Feb-19 06:33N 31°13' E 122°06'1414.0
2015-Feb-19 05:34N 31°17' E 121°50'9 9.3
2015-Feb-19 04:33N 31°20' E 121°40'0 0.0
2015-Feb-19 03:34N 31°20' E 121°40'0 0.0
2015-Feb-19 02:33N 31°20' E 121°40'0 0.0
2015-Feb-19 01:33N 31°20' E 121°40'0 0.0
2015-Feb-19 00:33N 31°20' E 121°40'0 0.0
2015-Feb-18 23:33N 31°20' E 121°40'0 0.0
2015-Feb-18 22:33N 31°20' E 121°40'0 0.0
2015-Feb-18 21:33N 31°20' E 121°40'0 0.0
2015-Feb-18 20:33N 31°20' E 121°40'0 0.0
2015-Feb-18 19:33N 31°20' E 121°40'0 0.0
2015-Feb-18 18:33N 31°20' E 121°40'0 0.0
2015-Feb-18 17:33N 31°20' E 121°40'  
Track history (hours):
 
Tides and Currents Weather Stations Pressure Air Temp Water Temp Dewpoint Dewpoint Depression Visibility Wind Speed Wind Dir Waves Ship Positions

CSAV Rio Maipo

Last reported at 2015-Feb-28 17:32 UTC. Time now 2015-Mar-02 14:59 UTC.
Position N 01°15' E 104°11'.

Length 210.9 m; beam 32.3 m; draft 12 m.

Type: Ship (hazmat cat A). MMSI: 636091292.

Date/timePositionNaut miles runAvg speedWind from/ knotsBaromVisibWave heightAir tempDewpointWater temp
2015-Feb-28 17:32N 01°15' E 104°11'1413.9
2015-Feb-28 16:33N 01°14' E 103°58'1010.1
2015-Feb-28 15:32N 01°13' E 103°47'4 4.4
2015-Feb-28 14:33N 01°17' E 103°46'0 0.0
2015-Feb-28 13:33N 01°17' E 103°46'0 0.0
2015-Feb-28 10:11N 01°17' E 103°46'0 0.0
2015-Feb-28 09:29N 01°17' E 103°46'0 0.0
2015-Feb-27 22:14N 01°17' E 103°46'1 0.2
2015-Feb-27 19:33N 01°17' E 103°45'7 7.4
2015-Feb-27 18:33N 01°12' E 103°51'1010.0
2015-Feb-27 17:33N 01°15' E 104°00'7 6.7
2015-Feb-27 16:33N 01°22' E 104°03'6 0.3
2015-Feb-26 22:08N 01°24' E 103°57'610.1
2015-Feb-26 21:31N 01°22' E 104°03'1010.4
2015-Feb-26 20:33N 01°17' E 104°12'  
2015-Feb-23 07:21N 22°07' E 114°19'1013.0
2015-Feb-23 06:33N 22°13' E 114°10'1110.7
2015-Feb-23 05:31N 22°21' E 114°02'9 9.4
2015-Feb-23 04:33N 22°24' E 113°53'3 2.9
2015-Feb-23 03:33N 22°27' E 113°54'0 0.0
2015-Feb-23 02:31N 22°27' E 113°54'0 0.0
2015-Feb-23 01:30N 22°27' E 113°54'0 0.0
2015-Feb-23 00:30N 22°27' E 113°54'0 0.0
2015-Feb-22 23:30N 22°27' E 113°54'0 0.0
2015-Feb-22 22:30N 22°27' E 113°54'0 0.0
2015-Feb-22 21:30N 22°27' E 113°54'0 0.0
2015-Feb-22 20:30N 22°27' E 113°54'0 0.0
2015-Feb-22 19:30N 22°27' E 113°54'0 0.0
2015-Feb-22 18:24N 22°27' E 113°54'0 0.5
2015-Feb-22 17:34N 22°27' E 113°54'10 7.4
2015-Feb-22 16:13N 22°21' E 114°02'6 9.2
2015-Feb-22 15:33N 22°17' E 114°07'1110.5
2015-Feb-22 14:33N 22°09' E 114°14'1715.6
2015-Feb-22 13:28N 22°08' E 114°33'203 6.8
2015-Feb-21 07:33N 23°36' E 117°51'1616.2
2015-Feb-21 06:33N 23°48' E 118°04'1616.1
2015-Feb-21 05:33N 23°59' E 118°16'1414.3
2015-Feb-21 04:33N 24°14' E 118°16'1313.2
2015-Feb-21 03:33N 24°24' E 118°07'7 7.4
2015-Feb-21 02:33N 24°31' E 118°04'0 0.2
2015-Feb-21 01:33N 24°30' E 118°05'0 0.0
2015-Feb-21 00:18N 24°30' E 118°05'0 0.0
2015-Feb-20 23:15N 24°30' E 118°05'0 0.0
2015-Feb-20 22:33N 24°30' E 118°05'0 0.0
2015-Feb-20 21:24N 24°30' E 118°05'6 6.8
2015-Feb-20 20:33N 24°25' E 118°06'6 6.4
2015-Feb-20 19:33N 24°20' E 118°11'1010.4
2015-Feb-20 18:33N 24°14' E 118°20'1211.8
2015-Feb-20 17:33N 24°16' E 118°33'1111.3
2015-Feb-20 16:33N 24°21' E 118°43'1211.6
2015-Feb-20 15:33N 24°29' E 118°53'1515.5
2015-Feb-20 14:34N 24°38' E 119°07'3615.1
2015-Feb-20 12:12N 24°58' E 119°39'1114.5
2015-Feb-20 11:24N 25°04' E 119°50'33915.3
2015-Feb-19 13:12N 30°01' E 122°56'2915.2
2015-Feb-19 11:17N 30°30' E 122°60'1614.4
2015-Feb-19 10:10N 30°46' E 122°55'1215.6
2015-Feb-19 09:23N 30°57' E 122°49'1915.2
2015-Feb-19 08:07N 31°05' E 122°29'712.5
2015-Feb-19 07:33N 31°06' E 122°21'1514.6
2015-Feb-19 06:33N 31°13' E 122°06'1414.0
2015-Feb-19 05:34N 31°17' E 121°50'9 9.3
2015-Feb-19 04:33N 31°20' E 121°40'0 0.0
2015-Feb-19 03:34N 31°20' E 121°40'0 0.0
2015-Feb-19 02:33N 31°20' E 121°40'0 0.0
2015-Feb-19 01:33N 31°20' E 121°40'0 0.0
2015-Feb-19 00:33N 31°20' E 121°40'0 0.0
2015-Feb-18 23:33N 31°20' E 121°40'0 0.0
2015-Feb-18 22:33N 31°20' E 121°40'0 0.0
2015-Feb-18 21:33N 31°20' E 121°40'0 0.0
2015-Feb-18 20:33N 31°20' E 121°40'0 0.0
2015-Feb-18 19:33N 31°20' E 121°40'0 0.0
2015-Feb-18 18:33N 31°20' E 121°40'0 0.0
2015-Feb-18 17:33N 31°20' E 121°40'  

Dump ship's entire track history